sensor_id;sensor_type;location;lat;lon;timestamp;temperature;humidity
50570;DHT22;36525;49.398;7.614;2023-04-25T00:02:13;6.90;99.90
50570;DHT22;36525;49.398;7.614;2023-04-25T00:04:40;6.90;99.90
50570;DHT22;36525;49.398;7.614;2023-04-25T00:07:08;6.90;99.90
50570;DHT22;36525;49.398;7.614;2023-04-25T00:09:35;6.90;99.90
50570;DHT22;36525;49.398;7.614;2023-04-25T00:12:02;6.90;99.90
50570;DHT22;36525;49.398;7.614;2023-04-25T00:14:30;6.80;99.90
50570;DHT22;36525;49.398;7.614;2023-04-25T00:16:56;6.80;99.90
50570;DHT22;36525;49.398;7.614;2023-04-25T00:19:27;6.80;99.90
50570;DHT22;36525;49.398;7.614;2023-04-25T00:21:55;6.90;99.90
50570;DHT22;36525;49.398;7.614;2023-04-25T00:24:23;6.90;99.90
50570;DHT22;36525;49.398;7.614;2023-04-25T00:26:50;6.90;99.90
50570;DHT22;36525;49.398;7.614;2023-04-25T00:29:18;6.90;99.90
50570;DHT22;36525;49.398;7.614;2023-04-25T00:31:45;6.80;99.90
50570;DHT22;36525;49.398;7.614;2023-04-25T00:34:13;6.70;99.90
50570;DHT22;36525;49.398;7.614;2023-04-25T00:36:40;6.70;99.90
50570;DHT22;36525;49.398;7.614;2023-04-25T00:39:07;6.70;99.90
50570;DHT22;36525;49.398;7.614;2023-04-25T00:41:34;6.80;99.90
50570;DHT22;36525;49.398;7.614;2023-04-25T00:44:08;6.90;99.90
50570;DHT22;36525;49.398;7.614;2023-04-25T00:46:38;6.90;99.90
50570;DHT22;36525;49.398;7.614;2023-04-25T00:49:07;6.90;99.90
50570;DHT22;36525;49.398;7.614;2023-04-25T00:51:34;6.80;99.90
50570;DHT22;36525;49.398;7.614;2023-04-25T00:54:02;6.70;99.90
50570;DHT22;36525;49.398;7.614;2023-04-25T00:56:30;6.70;99.90
50570;DHT22;36525;49.398;7.614;2023-04-25T00:58:57;6.70;99.90
50570;DHT22;36525;49.398;7.614;2023-04-25T01:01:25;6.70;99.90
50570;DHT22;36525;49.398;7.614;2023-04-25T01:03:53;6.70;99.90
50570;DHT22;36525;49.398;7.614;2023-04-25T01:06:21;6.70;99.90
50570;DHT22;36525;49.398;7.614;2023-04-25T01:08:49;6.80;99.90
50570;DHT22;36525;49.398;7.614;2023-04-25T01:11:16;6.80;99.90
50570;DHT22;36525;49.398;7.614;2023-04-25T01:13:43;6.70;99.90
50570;DHT22;36525;49.398;7.614;2023-04-25T01:16:11;6.60;99.90
50570;DHT22;36525;49.398;7.614;2023-04-25T01:18:41;6.70;99.90
50570;DHT22;36525;49.398;7.614;2023-04-25T01:21:11;6.70;99.90
50570;DHT22;36525;49.398;7.614;2023-04-25T01:23:42;6.70;99.90
50570;DHT22;36525;49.398;7.614;2023-04-25T01:26:11;6.70;99.90
50570;DHT22;36525;49.398;7.614;2023-04-25T01:28:39;6.80;99.90
50570;DHT22;36525;49.398;7.614;2023-04-25T01:31:11;6.70;99.90
50570;DHT22;36525;49.398;7.614;2023-04-25T01:33:39;6.70;99.90
50570;DHT22;36525;49.398;7.614;2023-04-25T01:36:06;6.70;99.90
50570;DHT22;36525;49.398;7.614;2023-04-25T01:38:36;6.60;99.90
50570;DHT22;36525;49.398;7.614;2023-04-25T01:41:05;6.60;99.90
50570;DHT22;36525;49.398;7.614;2023-04-25T01:43:36;6.60;99.90
50570;DHT22;36525;49.398;7.614;2023-04-25T01:46:03;6.60;99.90
50570;DHT22;36525;49.398;7.614;2023-04-25T01:48:31;6.60;99.90
50570;DHT22;36525;49.398;7.614;2023-04-25T01:50:58;6.60;99.90
50570;DHT22;36525;49.398;7.614;2023-04-25T01:53:25;6.70;99.90
50570;DHT22;36525;49.398;7.614;2023-04-25T01:55:56;6.70;99.90
50570;DHT22;36525;49.398;7.614;2023-04-25T01:58:24;6.60;99.90
50570;DHT22;36525;49.398;7.614;2023-04-25T02:00:51;6.60;99.90
50570;DHT22;36525;49.398;7.614;2023-04-25T02:03:18;6.50;99.90
50570;DHT22;36525;49.398;7.614;2023-04-25T02:05:47;6.40;99.90
50570;DHT22;36525;49.398;7.614;2023-04-25T02:08:14;6.50;99.90
50570;DHT22;36525;49.398;7.614;2023-04-25T02:10:43;6.50;99.90
50570;DHT22;36525;49.398;7.614;2023-04-25T02:13:11;6.50;99.90
50570;DHT22;36525;49.398;7.614;2023-04-25T02:15:38;6.50;99.90
50570;DHT22;36525;49.398;7.614;2023-04-25T02:18:05;6.50;99.90
50570;DHT22;36525;49.398;7.614;2023-04-25T02:20:33;6.50;99.90
50570;DHT22;36525;49.398;7.614;2023-04-25T02:23:00;6.50;99.90
50570;DHT22;36525;49.398;7.614;2023-04-25T02:25:28;6.50;99.90
50570;DHT22;36525;49.398;7.614;2023-04-25T02:27:55;6.50;99.90
50570;DHT22;36525;49.398;7.614;2023-04-25T02:30:22;6.60;99.90
50570;DHT22;36525;49.398;7.614;2023-04-25T02:33:06;6.60;99.90
50570;DHT22;36525;49.398;7.614;2023-04-25T02:35:34;6.70;99.90
50570;DHT22;36525;49.398;7.614;2023-04-25T02:38:01;6.70;99.90
50570;DHT22;36525;49.398;7.614;2023-04-25T02:40:29;6.60;99.90
50570;DHT22;36525;49.398;7.614;2023-04-25T02:42:56;6.50;99.90
50570;DHT22;36525;49.398;7.614;2023-04-25T02:45:23;6.50;99.90
50570;DHT22;36525;49.398;7.614;2023-04-25T02:47:50;6.40;99.90
50570;DHT22;36525;49.398;7.614;2023-04-25T02:50:17;6.40;99.90
50570;DHT22;36525;49.398;7.614;2023-04-25T02:52:45;6.30;99.90
50570;DHT22;36525;49.398;7.614;2023-04-25T02:55:13;6.30;99.90
50570;DHT22;36525;49.398;7.614;2023-04-25T02:57:41;6.30;99.90
50570;DHT22;36525;49.398;7.614;2023-04-25T03:00:08;6.30;99.90
50570;DHT22;36525;49.398;7.614;2023-04-25T03:02:38;6.30;99.90
50570;DHT22;36525;49.398;7.614;2023-04-25T03:05:08;6.30;99.90
50570;DHT22;36525;49.398;7.614;2023-04-25T03:07:36;6.20;99.90
50570;DHT22;36525;49.398;7.614;2023-04-25T03:10:06;6.20;99.90
50570;DHT22;36525;49.398;7.614;2023-04-25T03:12:35;6.20;99.90
50570;DHT22;36525;49.398;7.614;2023-04-25T03:15:03;6.10;99.90
50570;DHT22;36525;49.398;7.614;2023-04-25T03:17:30;6.10;99.90
50570;DHT22;36525;49.398;7.614;2023-04-25T03:19:58;6.20;99.90
50570;DHT22;36525;49.398;7.614;2023-04-25T03:22:25;6.10;99.90
50570;DHT22;36525;49.398;7.614;2023-04-25T03:24:52;6.20;99.90
50570;DHT22;36525;49.398;7.614;2023-04-25T03:27:19;6.10;99.90
50570;DHT22;36525;49.398;7.614;2023-04-25T03:29:46;6.10;99.90
50570;DHT22;36525;49.398;7.614;2023-04-25T03:32:14;6.20;99.90
50570;DHT22;36525;49.398;7.614;2023-04-25T03:34:41;6.20;99.90
50570;DHT22;36525;49.398;7.614;2023-04-25T03:37:09;6.20;99.90
50570;DHT22;36525;49.398;7.614;2023-04-25T03:39:36;6.30;99.90
50570;DHT22;36525;49.398;7.614;2023-04-25T03:42:04;6.30;99.90
50570;DHT22;36525;49.398;7.614;2023-04-25T03:44:31;6.40;99.90
50570;DHT22;36525;49.398;7.614;2023-04-25T03:46:58;6.40;99.90
50570;DHT22;36525;49.398;7.614;2023-04-25T03:49:26;6.60;99.90
50570;DHT22;36525;49.398;7.614;2023-04-25T03:51:53;6.60;99.90
50570;DHT22;36525;49.398;7.614;2023-04-25T03:54:20;6.70;99.90
50570;DHT22;36525;49.398;7.614;2023-04-25T03:56:48;6.70;99.90
50570;DHT22;36525;49.398;7.614;2023-04-25T03:59:15;6.70;99.90
50570;DHT22;36525;49.398;7.614;2023-04-25T04:01:42;6.60;99.90
50570;DHT22;36525;49.398;7.614;2023-04-25T04:04:10;6.60;99.90
50570;DHT22;36525;49.398;7.614;2023-04-25T04:06:38;6.60;99.90
50570;DHT22;36525;49.398;7.614;2023-04-25T04:09:05;6.70;99.90
50570;DHT22;36525;49.398;7.614;2023-04-25T04:11:42;6.70;99.90
50570;DHT22;36525;49.398;7.614;2023-04-25T04:14:12;6.80;99.90
50570;DHT22;36525;49.398;7.614;2023-04-25T04:16:39;6.80;99.90
50570;DHT22;36525;49.398;7.614;2023-04-25T04:19:06;6.90;99.90
50570;DHT22;36525;49.398;7.614;2023-04-25T04:21:33;6.90;99.90
50570;DHT22;36525;49.398;7.614;2023-04-25T04:24:02;6.90;99.90
50570;DHT22;36525;49.398;7.614;2023-04-25T04:26:29;7.00;99.90
50570;DHT22;36525;49.398;7.614;2023-04-25T04:28:58;7.00;99.90
50570;DHT22;36525;49.398;7.614;2023-04-25T04:31:25;6.90;99.90
50570;DHT22;36525;49.398;7.614;2023-04-25T04:33:52;6.80;99.90
50570;DHT22;36525;49.398;7.614;2023-04-25T04:36:19;6.70;99.90
50570;DHT22;36525;49.398;7.614;2023-04-25T04:38:48;6.60;99.90
50570;DHT22;36525;49.398;7.614;2023-04-25T04:41:16;6.50;99.90
50570;DHT22;36525;49.398;7.614;2023-04-25T04:43:43;6.50;99.90
50570;DHT22;36525;49.398;7.614;2023-04-25T04:46:11;6.50;99.90
50570;DHT22;36525;49.398;7.614;2023-04-25T04:48:39;6.60;99.90
50570;DHT22;36525;49.398;7.614;2023-04-25T04:51:06;6.70;99.90
50570;DHT22;36525;49.398;7.614;2023-04-25T04:53:33;6.80;99.90
50570;DHT22;36525;49.398;7.614;2023-04-25T04:56:01;6.80;99.90
50570;DHT22;36525;49.398;7.614;2023-04-25T04:58:28;6.90;99.90
50570;DHT22;36525;49.398;7.614;2023-04-25T05:00:56;7.00;99.90
50570;DHT22;36525;49.398;7.614;2023-04-25T05:03:24;7.00;99.90
50570;DHT22;36525;49.398;7.614;2023-04-25T05:05:51;6.80;99.90
50570;DHT22;36525;49.398;7.614;2023-04-25T05:08:18;6.80;99.90
50570;DHT22;36525;49.398;7.614;2023-04-25T05:10:46;6.80;99.90
50570;DHT22;36525;49.398;7.614;2023-04-25T05:13:13;6.80;99.90
50570;DHT22;36525;49.398;7.614;2023-04-25T05:15:41;6.70;99.90
50570;DHT22;36525;49.398;7.614;2023-04-25T05:18:08;6.70;99.90
50570;DHT22;36525;49.398;7.614;2023-04-25T05:20:35;6.80;99.90
50570;DHT22;36525;49.398;7.614;2023-04-25T05:23:04;6.90;99.90
50570;DHT22;36525;49.398;7.614;2023-04-25T05:25:31;6.90;99.90
50570;DHT22;36525;49.398;7.614;2023-04-25T05:27:58;6.90;99.90
50570;DHT22;36525;49.398;7.614;2023-04-25T05:30:25;7.00;99.90
50570;DHT22;36525;49.398;7.614;2023-04-25T05:32:52;7.00;99.90
50570;DHT22;36525;49.398;7.614;2023-04-25T05:35:19;7.00;99.90
50570;DHT22;36525;49.398;7.614;2023-04-25T05:37:46;7.00;99.90
50570;DHT22;36525;49.398;7.614;2023-04-25T05:40:14;7.10;99.90
50570;DHT22;36525;49.398;7.614;2023-04-25T05:42:41;7.10;99.90
50570;DHT22;36525;49.398;7.614;2023-04-25T05:45:08;6.90;99.90
50570;DHT22;36525;49.398;7.614;2023-04-25T05:47:36;6.70;99.90
50570;DHT22;36525;49.398;7.614;2023-04-25T05:50:03;6.70;99.90
50570;DHT22;36525;49.398;7.614;2023-04-25T05:52:31;6.70;99.90
50570;DHT22;36525;49.398;7.614;2023-04-25T05:54:58;6.70;99.90
50570;DHT22;36525;49.398;7.614;2023-04-25T05:57:27;6.80;99.90
50570;DHT22;36525;49.398;7.614;2023-04-25T05:59:54;6.70;99.90
50570;DHT22;36525;49.398;7.614;2023-04-25T06:02:21;6.80;99.90
50570;DHT22;36525;49.398;7.614;2023-04-25T06:04:50;6.90;99.90
50570;DHT22;36525;49.398;7.614;2023-04-25T06:07:18;6.90;99.90
50570;DHT22;36525;49.398;7.614;2023-04-25T06:09:47;7.00;99.90
50570;DHT22;36525;49.398;7.614;2023-04-25T06:12:14;7.00;99.90
50570;DHT22;36525;49.398;7.614;2023-04-25T06:14:41;7.10;99.90
50570;DHT22;36525;49.398;7.614;2023-04-25T06:17:08;7.10;99.90
50570;DHT22;36525;49.398;7.614;2023-04-25T06:19:36;7.10;99.90
50570;DHT22;36525;49.398;7.614;2023-04-25T06:22:03;7.10;99.90
50570;DHT22;36525;49.398;7.614;2023-04-25T06:24:30;7.10;99.90
50570;DHT22;36525;49.398;7.614;2023-04-25T06:26:57;7.10;99.90
50570;DHT22;36525;49.398;7.614;2023-04-25T06:29:26;7.20;99.90
50570;DHT22;36525;49.398;7.614;2023-04-25T06:31:53;7.20;99.90
50570;DHT22;36525;49.398;7.614;2023-04-25T06:34:20;7.20;99.90
50570;DHT22;36525;49.398;7.614;2023-04-25T06:36:50;7.20;99.90
50570;DHT22;36525;49.398;7.614;2023-04-25T06:39:17;7.20;99.90
50570;DHT22;36525;49.398;7.614;2023-04-25T06:41:47;7.30;99.90
50570;DHT22;36525;49.398;7.614;2023-04-25T06:44:15;7.40;99.90
50570;DHT22;36525;49.398;7.614;2023-04-25T06:46:42;7.40;99.90
50570;DHT22;36525;49.398;7.614;2023-04-25T06:49:09;7.50;99.90
50570;DHT22;36525;49.398;7.614;2023-04-25T06:51:36;7.40;99.90
50570;DHT22;36525;49.398;7.614;2023-04-25T06:54:03;7.40;99.90
50570;DHT22;36525;49.398;7.614;2023-04-25T06:56:31;7.40;99.90
50570;DHT22;36525;49.398;7.614;2023-04-25T06:58:58;7.40;99.90
50570;DHT22;36525;49.398;7.614;2023-04-25T07:01:28;7.30;99.90
50570;DHT22;36525;49.398;7.614;2023-04-25T07:03:55;7.20;99.90
50570;DHT22;36525;49.398;7.614;2023-04-25T07:06:23;7.10;99.90
50570;DHT22;36525;49.398;7.614;2023-04-25T07:08:50;7.10;99.90
50570;DHT22;36525;49.398;7.614;2023-04-25T07:11:18;7.00;99.90
50570;DHT22;36525;49.398;7.614;2023-04-25T07:13:45;7.00;99.90
50570;DHT22;36525;49.398;7.614;2023-04-25T07:16:13;7.00;99.90
50570;DHT22;36525;49.398;7.614;2023-04-25T07:18:41;7.00;99.90
50570;DHT22;36525;49.398;7.614;2023-04-25T07:21:08;6.90;99.90
50570;DHT22;36525;49.398;7.614;2023-04-25T07:23:35;6.80;99.90
50570;DHT22;36525;49.398;7.614;2023-04-25T07:26:04;6.80;99.90
50570;DHT22;36525;49.398;7.614;2023-04-25T07:28:31;6.80;99.90
50570;DHT22;36525;49.398;7.614;2023-04-25T07:30:58;6.90;99.90
50570;DHT22;36525;49.398;7.614;2023-04-25T07:33:25;7.10;99.90
50570;DHT22;36525;49.398;7.614;2023-04-25T07:35:53;7.20;99.90
50570;DHT22;36525;49.398;7.614;2023-04-25T07:38:20;7.20;99.90
50570;DHT22;36525;49.398;7.614;2023-04-25T07:40:48;7.30;99.90
50570;DHT22;36525;49.398;7.614;2023-04-25T07:43:15;7.50;99.90
50570;DHT22;36525;49.398;7.614;2023-04-25T07:45:44;7.60;99.90
50570;DHT22;36525;49.398;7.614;2023-04-25T07:48:11;7.60;99.90
50570;DHT22;36525;49.398;7.614;2023-04-25T07:50:41;7.60;99.90
50570;DHT22;36525;49.398;7.614;2023-04-25T07:53:09;7.60;99.90
50570;DHT22;36525;49.398;7.614;2023-04-25T07:55:39;7.60;99.90
50570;DHT22;36525;49.398;7.614;2023-04-25T07:58:07;7.60;99.90
50570;DHT22;36525;49.398;7.614;2023-04-25T08:00:35;7.50;99.90
50570;DHT22;36525;49.398;7.614;2023-04-25T08:03:03;7.40;99.90
50570;DHT22;36525;49.398;7.614;2023-04-25T08:05:30;7.40;99.90
50570;DHT22;36525;49.398;7.614;2023-04-25T08:07:57;7.30;99.90
50570;DHT22;36525;49.398;7.614;2023-04-25T08:10:25;7.40;99.90
50570;DHT22;36525;49.398;7.614;2023-04-25T08:12:52;7.40;99.90
50570;DHT22;36525;49.398;7.614;2023-04-25T08:15:20;7.40;99.90
50570;DHT22;36525;49.398;7.614;2023-04-25T08:17:49;7.30;99.90
50570;DHT22;36525;49.398;7.614;2023-04-25T08:20:16;7.20;99.90
50570;DHT22;36525;49.398;7.614;2023-04-25T08:22:43;7.30;99.90
50570;DHT22;36525;49.398;7.614;2023-04-25T08:25:11;7.30;99.90
50570;DHT22;36525;49.398;7.614;2023-04-25T08:27:55;7.40;99.90
50570;DHT22;36525;49.398;7.614;2023-04-25T08:30:23;7.30;99.90
50570;DHT22;36525;49.398;7.614;2023-04-25T08:32:50;7.00;99.90
50570;DHT22;36525;49.398;7.614;2023-04-25T08:35:17;6.80;99.90
50570;DHT22;36525;49.398;7.614;2023-04-25T08:37:44;6.60;99.90
50570;DHT22;36525;49.398;7.614;2023-04-25T08:40:14;6.50;99.90
50570;DHT22;36525;49.398;7.614;2023-04-25T08:42:42;6.50;99.90
50570;DHT22;36525;49.398;7.614;2023-04-25T08:45:09;6.50;99.90
50570;DHT22;36525;49.398;7.614;2023-04-25T08:47:38;6.40;99.90
50570;DHT22;36525;49.398;7.614;2023-04-25T08:50:16;6.60;99.90
50570;DHT22;36525;49.398;7.614;2023-04-25T08:52:44;6.70;99.90
50570;DHT22;36525;49.398;7.614;2023-04-25T08:55:15;6.80;99.90
50570;DHT22;36525;49.398;7.614;2023-04-25T08:57:43;6.90;99.90
50570;DHT22;36525;49.398;7.614;2023-04-25T09:00:12;7.00;99.90
50570;DHT22;36525;49.398;7.614;2023-04-25T09:02:42;7.10;99.90
50570;DHT22;36525;49.398;7.614;2023-04-25T09:05:13;7.20;99.90
50570;DHT22;36525;49.398;7.614;2023-04-25T09:07:41;7.30;99.90
50570;DHT22;36525;49.398;7.614;2023-04-25T09:10:08;7.30;99.90
50570;DHT22;36525;49.398;7.614;2023-04-25T09:12:36;7.50;99.90
50570;DHT22;36525;49.398;7.614;2023-04-25T09:15:10;7.60;99.90
50570;DHT22;36525;49.398;7.614;2023-04-25T09:17:41;7.90;99.90
50570;DHT22;36525;49.398;7.614;2023-04-25T09:20:13;8.20;99.90
50570;DHT22;36525;49.398;7.614;2023-04-25T09:22:41;8.50;99.90
50570;DHT22;36525;49.398;7.614;2023-04-25T09:27:53;8.50;99.90
50570;DHT22;36525;49.398;7.614;2023-04-25T09:30:31;8.80;99.90
50570;DHT22;36525;49.398;7.614;2023-04-25T09:33:11;8.90;99.90
50570;DHT22;36525;49.398;7.614;2023-04-25T09:35:43;8.80;99.90
50570;DHT22;36525;49.398;7.614;2023-04-25T09:38:15;8.60;99.90
50570;DHT22;36525;49.398;7.614;2023-04-25T09:40:46;8.40;99.90
50570;DHT22;36525;49.398;7.614;2023-04-25T09:43:23;8.50;99.90
50570;DHT22;36525;49.398;7.614;2023-04-25T09:45:53;8.60;99.90
50570;DHT22;36525;49.398;7.614;2023-04-25T09:48:26;8.90;99.90
50570;DHT22;36525;49.398;7.614;2023-04-25T09:51:13;9.20;99.90
50570;DHT22;36525;49.398;7.614;2023-04-25T09:53:42;9.50;99.90
50570;DHT22;36525;49.398;7.614;2023-04-25T09:56:11;9.80;99.90
50570;DHT22;36525;49.398;7.614;2023-04-25T09:58:40;9.80;99.90
50570;DHT22;36525;49.398;7.614;2023-04-25T10:01:09;9.70;99.90
50570;DHT22;36525;49.398;7.614;2023-04-25T10:03:38;9.60;99.90
50570;DHT22;36525;49.398;7.614;2023-04-25T10:06:19;9.70;99.90
50570;DHT22;36525;49.398;7.614;2023-04-25T10:08:50;9.90;99.90
50570;DHT22;36525;49.398;7.614;2023-04-25T10:11:18;10.00;99.90
50570;DHT22;36525;49.398;7.614;2023-04-25T10:13:45;9.80;99.90
50570;DHT22;36525;49.398;7.614;2023-04-25T10:16:14;9.50;99.90
50570;DHT22;36525;49.398;7.614;2023-04-25T10:18:43;9.00;99.90
50570;DHT22;36525;49.398;7.614;2023-04-25T10:21:10;8.80;99.90
50570;DHT22;36525;49.398;7.614;2023-04-25T10:23:38;8.90;99.90
50570;DHT22;36525;49.398;7.614;2023-04-25T10:26:06;9.20;99.90
50570;DHT22;36525;49.398;7.614;2023-04-25T10:28:59;9.50;99.90
50570;DHT22;36525;49.398;7.614;2023-04-25T10:31:29;9.40;99.90
50570;DHT22;36525;49.398;7.614;2023-04-25T10:33:58;9.10;99.90
50570;DHT22;36525;49.398;7.614;2023-04-25T10:36:31;9.20;99.90
50570;DHT22;36525;49.398;7.614;2023-04-25T10:39:05;9.20;99.90
50570;DHT22;36525;49.398;7.614;2023-04-25T10:41:53;9.30;99.90
50570;DHT22;36525;49.398;7.614;2023-04-25T10:44:25;9.60;99.90
50570;DHT22;36525;49.398;7.614;2023-04-25T10:46:59;10.40;99.90
50570;DHT22;36525;49.398;7.614;2023-04-25T10:49:38;11.00;99.90
50570;DHT22;36525;49.398;7.614;2023-04-25T10:54:54;11.20;99.90
50570;DHT22;36525;49.398;7.614;2023-04-25T10:57:41;11.20;99.90
50570;DHT22;36525;49.398;7.614;2023-04-25T11:00:17;11.20;99.90
50570;DHT22;36525;49.398;7.614;2023-04-25T11:02:53;12.00;99.90
50570;DHT22;36525;49.398;7.614;2023-04-25T11:05:33;12.60;99.90
50570;DHT22;36525;49.398;7.614;2023-04-25T11:08:34;12.80;99.90
50570;DHT22;36525;49.398;7.614;2023-04-25T11:11:13;13.30;99.90
50570;DHT22;36525;49.398;7.614;2023-04-25T11:13:41;13.50;99.90
50570;DHT22;36525;49.398;7.614;2023-04-25T11:16:08;13.50;99.90
50570;DHT22;36525;49.398;7.614;2023-04-25T11:18:41;12.80;99.90
50570;DHT22;36525;49.398;7.614;2023-04-25T11:21:10;12.30;99.90
50570;DHT22;36525;49.398;7.614;2023-04-25T11:23:38;12.70;99.90
50570;DHT22;36525;49.398;7.614;2023-04-25T11:26:05;13.60;99.90
50570;DHT22;36525;49.398;7.614;2023-04-25T11:28:32;14.20;99.90
50570;DHT22;36525;49.398;7.614;2023-04-25T11:30:59;14.40;99.90
50570;DHT22;36525;49.398;7.614;2023-04-25T11:33:26;14.50;99.90
50570;DHT22;36525;49.398;7.614;2023-04-25T11:35:55;13.90;99.90
50570;DHT22;36525;49.398;7.614;2023-04-25T11:38:26;13.50;99.90
50570;DHT22;36525;49.398;7.614;2023-04-25T11:40:55;12.80;99.90
50570;DHT22;36525;49.398;7.614;2023-04-25T11:45:50;12.30;99.90
50570;DHT22;36525;49.398;7.614;2023-04-25T11:48:19;12.50;99.90
50570;DHT22;36525;49.398;7.614;2023-04-25T11:50:53;12.70;99.90
50570;DHT22;36525;49.398;7.614;2023-04-25T11:53:20;12.80;99.90
50570;DHT22;36525;49.398;7.614;2023-04-25T11:55:48;12.90;99.90
50570;DHT22;36525;49.398;7.614;2023-04-25T11:58:17;12.70;99.90
50570;DHT22;36525;49.398;7.614;2023-04-25T12:00:46;12.50;99.90
50570;DHT22;36525;49.398;7.614;2023-04-25T12:03:18;12.50;99.90
50570;DHT22;36525;49.398;7.614;2023-04-25T12:05:49;12.70;99.90
50570;DHT22;36525;49.398;7.614;2023-04-25T12:08:20;12.80;99.90
50570;DHT22;36525;49.398;7.614;2023-04-25T12:10:47;13.00;99.90
50570;DHT22;36525;49.398;7.614;2023-04-25T12:15:56;12.60;99.90
50570;DHT22;36525;49.398;7.614;2023-04-25T12:18:24;12.80;99.90
50570;DHT22;36525;49.398;7.614;2023-04-25T12:20:54;13.00;99.90
50570;DHT22;36525;49.398;7.614;2023-04-25T12:23:26;13.20;99.90
50570;DHT22;36525;49.398;7.614;2023-04-25T12:25:55;13.00;99.90
50570;DHT22;36525;49.398;7.614;2023-04-25T12:28:25;12.90;99.90
50570;DHT22;36525;49.398;7.614;2023-04-25T12:31:00;12.60;99.90
50570;DHT22;36525;49.398;7.614;2023-04-25T12:33:32;12.40;99.90
50570;DHT22;36525;49.398;7.614;2023-04-25T12:36:01;12.40;99.90
50570;DHT22;36525;49.398;7.614;2023-04-25T12:41:09;12.30;99.90
50570;DHT22;36525;49.398;7.614;2023-04-25T12:43:36;12.40;99.90
50570;DHT22;36525;49.398;7.614;2023-04-25T12:46:04;12.40;99.90
50570;DHT22;36525;49.398;7.614;2023-04-25T12:48:31;12.50;99.90
50570;DHT22;36525;49.398;7.614;2023-04-25T12:50:59;12.60;99.90
50570;DHT22;36525;49.398;7.614;2023-04-25T12:53:29;12.70;99.90
50570;DHT22;36525;49.398;7.614;2023-04-25T12:55:59;12.90;99.90
50570;DHT22;36525;49.398;7.614;2023-04-25T12:58:26;13.10;99.90
50570;DHT22;36525;49.398;7.614;2023-04-25T13:00:53;13.10;99.90
50570;DHT22;36525;49.398;7.614;2023-04-25T13:03:21;13.00;99.90
50570;DHT22;36525;49.398;7.614;2023-04-25T13:05:49;12.80;99.90
50570;DHT22;36525;49.398;7.614;2023-04-25T13:08:17;13.10;99.90
50570;DHT22;36525;49.398;7.614;2023-04-25T13:10:47;13.50;99.90
50570;DHT22;36525;49.398;7.614;2023-04-25T13:13:28;13.70;99.90
50570;DHT22;36525;49.398;7.614;2023-04-25T13:16:08;13.70;99.90
50570;DHT22;36525;49.398;7.614;2023-04-25T13:18:51;13.30;99.90
50570;DHT22;36525;49.398;7.614;2023-04-25T13:25:32;12.90;99.90
50570;DHT22;36525;49.398;7.614;2023-04-25T13:27:59;13.20;99.90
50570;DHT22;36525;49.398;7.614;2023-04-25T13:30:28;13.50;99.90
50570;DHT22;36525;49.398;7.614;2023-04-25T13:32:55;13.50;99.90
50570;DHT22;36525;49.398;7.614;2023-04-25T13:35:24;13.20;99.90
50570;DHT22;36525;49.398;7.614;2023-04-25T13:37:51;12.70;99.90
50570;DHT22;36525;49.398;7.614;2023-04-25T13:40:18;12.40;99.90
50570;DHT22;36525;49.398;7.614;2023-04-25T13:42:45;12.30;99.90
50570;DHT22;36525;49.398;7.614;2023-04-25T13:45:13;12.30;99.90
50570;DHT22;36525;49.398;7.614;2023-04-25T13:47:40;12.40;99.90
50570;DHT22;36525;49.398;7.614;2023-04-25T13:50:07;12.40;99.90
50570;DHT22;36525;49.398;7.614;2023-04-25T13:52:36;12.30;99.90
50570;DHT22;36525;49.398;7.614;2023-04-25T13:55:03;12.40;99.90
50570;DHT22;36525;49.398;7.614;2023-04-25T13:57:34;12.30;99.90
50570;DHT22;36525;49.398;7.614;2023-04-25T14:00:03;11.90;99.90
50570;DHT22;36525;49.398;7.614;2023-04-25T14:02:35;11.70;99.90
50570;DHT22;36525;49.398;7.614;2023-04-25T14:05:04;11.60;99.90
50570;DHT22;36525;49.398;7.614;2023-04-25T14:07:34;11.80;99.90
50570;DHT22;36525;49.398;7.614;2023-04-25T14:10:02;11.90;99.90
50570;DHT22;36525;49.398;7.614;2023-04-25T14:12:32;12.30;99.90
50570;DHT22;36525;49.398;7.614;2023-04-25T14:14:59;13.00;99.90
50570;DHT22;36525;49.398;7.614;2023-04-25T14:17:26;13.60;99.90
50570;DHT22;36525;49.398;7.614;2023-04-25T14:19:54;14.10;99.90
50570;DHT22;36525;49.398;7.614;2023-04-25T14:22:21;13.90;99.90
50570;DHT22;36525;49.398;7.614;2023-04-25T14:24:48;13.90;99.90
50570;DHT22;36525;49.398;7.614;2023-04-25T14:27:15;13.80;99.90
50570;DHT22;36525;49.398;7.614;2023-04-25T14:29:43;13.70;99.90
50570;DHT22;36525;49.398;7.614;2023-04-25T14:32:10;13.30;99.90
50570;DHT22;36525;49.398;7.614;2023-04-25T14:34:37;13.50;99.90
50570;DHT22;36525;49.398;7.614;2023-04-25T14:37:04;13.50;99.90
50570;DHT22;36525;49.398;7.614;2023-04-25T14:39:34;13.30;99.90
50570;DHT22;36525;49.398;7.614;2023-04-25T14:44:32;12.90;99.90
50570;DHT22;36525;49.398;7.614;2023-04-25T14:46:59;12.70;99.90
50570;DHT22;36525;49.398;7.614;2023-04-25T14:49:26;12.40;99.90
50570;DHT22;36525;49.398;7.614;2023-04-25T14:54:22;12.30;99.90
50570;DHT22;36525;49.398;7.614;2023-04-25T14:56:49;11.90;99.90
50570;DHT22;36525;49.398;7.614;2023-04-25T14:59:16;11.80;99.90
50570;DHT22;36525;49.398;7.614;2023-04-25T15:01:43;11.80;99.90
50570;DHT22;36525;49.398;7.614;2023-04-25T15:04:10;11.70;99.90
50570;DHT22;36525;49.398;7.614;2023-04-25T15:06:39;11.50;99.90
50570;DHT22;36525;49.398;7.614;2023-04-25T15:09:06;11.60;99.90
50570;DHT22;36525;49.398;7.614;2023-04-25T15:11:33;11.70;99.90
50570;DHT22;36525;49.398;7.614;2023-04-25T15:14:00;11.70;99.90
50570;DHT22;36525;49.398;7.614;2023-04-25T15:16:27;11.60;99.90
50570;DHT22;36525;49.398;7.614;2023-04-25T15:18:57;11.50;99.90
50570;DHT22;36525;49.398;7.614;2023-04-25T15:21:28;11.50;99.90
50570;DHT22;36525;49.398;7.614;2023-04-25T15:23:55;11.40;99.90
50570;DHT22;36525;49.398;7.614;2023-04-25T15:26:22;11.20;99.90
50570;DHT22;36525;49.398;7.614;2023-04-25T15:28:49;11.00;99.90
50570;DHT22;36525;49.398;7.614;2023-04-25T15:33:44;10.60;99.90
50570;DHT22;36525;49.398;7.614;2023-04-25T15:36:11;10.50;99.90
50570;DHT22;36525;49.398;7.614;2023-04-25T15:38:38;10.50;99.90
50570;DHT22;36525;49.398;7.614;2023-04-25T15:41:05;10.40;99.90
50570;DHT22;36525;49.398;7.614;2023-04-25T15:43:32;10.30;99.90
50570;DHT22;36525;49.398;7.614;2023-04-25T15:46:02;10.30;99.90
50570;DHT22;36525;49.398;7.614;2023-04-25T15:48:30;10.30;99.90
50570;DHT22;36525;49.398;7.614;2023-04-25T15:50:58;10.50;99.90
50570;DHT22;36525;49.398;7.614;2023-04-25T15:53:25;10.40;99.90
50570;DHT22;36525;49.398;7.614;2023-04-25T15:55:56;10.50;99.90
50570;DHT22;36525;49.398;7.614;2023-04-25T15:58:24;10.50;99.90
50570;DHT22;36525;49.398;7.614;2023-04-25T16:07:21;10.20;99.90
50570;DHT22;36525;49.398;7.614;2023-04-25T16:09:51;10.20;99.90
50570;DHT22;36525;49.398;7.614;2023-04-25T16:12:29;10.10;99.90
50570;DHT22;36525;49.398;7.614;2023-04-25T16:15:10;10.10;99.90
50570;DHT22;36525;49.398;7.614;2023-04-25T16:17:37;10.00;99.90
50570;DHT22;36525;49.398;7.614;2023-04-25T16:20:05;9.90;99.90
50570;DHT22;36525;49.398;7.614;2023-04-25T16:22:43;9.80;99.90